sensor_id;sensor_type;location;lat;lon;timestamp;temperature;humidity
65854;DHT22;52627;48.838;2.402;2023-07-09T00:02:05;28.07;53.10
65854;DHT22;52627;48.838;2.402;2023-07-09T00:04:35;28.03;53.20
65854;DHT22;52627;48.838;2.402;2023-07-09T00:07:03;28.00;53.31
65854;DHT22;52627;48.838;2.402;2023-07-09T00:09:33;27.97;53.36
65854;DHT22;52627;48.838;2.402;2023-07-09T00:12:01;27.93;53.44
65854;DHT22;52627;48.838;2.402;2023-07-09T00:14:29;27.92;53.53
65854;DHT22;52627;48.838;2.402;2023-07-09T00:16:56;27.88;53.69
65854;DHT22;52627;48.838;2.402;2023-07-09T00:19:24;27.83;53.72
65854;DHT22;52627;48.838;2.402;2023-07-09T00:21:51;27.82;53.83
65854;DHT22;52627;48.838;2.402;2023-07-09T00:24:22;27.79;53.91
65854;DHT22;52627;48.838;2.402;2023-07-09T00:26:49;27.75;54.10
65854;DHT22;52627;48.838;2.402;2023-07-09T00:29:17;27.69;54.30
65854;DHT22;52627;48.838;2.402;2023-07-09T00:31:45;27.65;54.47
65854;DHT22;52627;48.838;2.402;2023-07-09T00:34:13;27.60;54.54
65854;DHT22;52627;48.838;2.402;2023-07-09T00:36:44;27.57;54.67
65854;DHT22;52627;48.838;2.402;2023-07-09T00:39:16;27.55;54.84
65854;DHT22;52627;48.838;2.402;2023-07-09T00:41:45;27.52;54.93
65854;DHT22;52627;48.838;2.402;2023-07-09T00:44:30;27.48;55.02
65854;DHT22;52627;48.838;2.402;2023-07-09T00:49:32;27.45;55.23
65854;DHT22;52627;48.838;2.402;2023-07-09T00:52:12;27.42;55.32
65854;DHT22;52627;48.838;2.402;2023-07-09T00:54:51;27.36;55.47
65854;DHT22;52627;48.838;2.402;2023-07-09T00:57:21;27.32;55.56
65854;DHT22;52627;48.838;2.402;2023-07-09T00:59:53;27.30;55.62
65854;DHT22;52627;48.838;2.402;2023-07-09T01:02:37;27.28;55.70
65854;DHT22;52627;48.838;2.402;2023-07-09T01:05:06;27.27;55.73
65854;DHT22;52627;48.838;2.402;2023-07-09T01:07:34;27.25;55.86
65854;DHT22;52627;48.838;2.402;2023-07-09T01:10:01;27.23;55.95
65854;DHT22;52627;48.838;2.402;2023-07-09T01:12:30;27.21;56.07
65854;DHT22;52627;48.838;2.402;2023-07-09T01:14:58;27.19;56.10
65854;DHT22;52627;48.838;2.402;2023-07-09T01:17:27;27.17;56.17
65854;DHT22;52627;48.838;2.402;2023-07-09T01:19:56;27.15;56.28
65854;DHT22;52627;48.838;2.402;2023-07-09T01:22:24;27.13;56.40
65854;DHT22;52627;48.838;2.402;2023-07-09T01:24:54;27.09;56.46
65854;DHT22;52627;48.838;2.402;2023-07-09T01:27:34;27.07;56.57
65854;DHT22;52627;48.838;2.402;2023-07-09T01:30:07;27.03;56.68
65854;DHT22;52627;48.838;2.402;2023-07-09T01:32:42;27.00;56.82
65854;DHT22;52627;48.838;2.402;2023-07-09T01:35:14;26.97;56.93
65854;DHT22;52627;48.838;2.402;2023-07-09T01:37:47;26.93;57.05
65854;DHT22;52627;48.838;2.402;2023-07-09T01:40:16;26.90;57.13
65854;DHT22;52627;48.838;2.402;2023-07-09T01:43:00;26.89;57.20
65854;DHT22;52627;48.838;2.402;2023-07-09T01:45:33;26.87;57.29
65854;DHT22;52627;48.838;2.402;2023-07-09T01:48:03;26.86;57.43
65854;DHT22;52627;48.838;2.402;2023-07-09T01:50:32;26.83;57.55
65854;DHT22;52627;48.838;2.402;2023-07-09T01:52:59;26.78;57.67
65854;DHT22;52627;48.838;2.402;2023-07-09T01:55:27;26.74;57.77
65854;DHT22;52627;48.838;2.402;2023-07-09T01:57:56;26.71;57.86
65854;DHT22;52627;48.838;2.402;2023-07-09T02:00:23;26.68;57.95
65854;DHT22;52627;48.838;2.402;2023-07-09T02:02:51;26.65;58.02
65854;DHT22;52627;48.838;2.402;2023-07-09T02:05:19;26.65;58.08
65854;DHT22;52627;48.838;2.402;2023-07-09T02:07:47;26.62;58.19
65854;DHT22;52627;48.838;2.402;2023-07-09T02:10:16;26.60;58.29
65854;DHT22;52627;48.838;2.402;2023-07-09T02:12:45;26.57;58.34
65854;DHT22;52627;48.838;2.402;2023-07-09T02:15:13;26.55;58.36
65854;DHT22;52627;48.838;2.402;2023-07-09T02:17:42;26.50;58.46
65854;DHT22;52627;48.838;2.402;2023-07-09T02:20:10;26.46;58.51
65854;DHT22;52627;48.838;2.402;2023-07-09T02:22:39;26.44;58.61
65854;DHT22;52627;48.838;2.402;2023-07-09T02:25:08;26.40;58.67
65854;DHT22;52627;48.838;2.402;2023-07-09T02:27:36;26.37;58.71
65854;DHT22;52627;48.838;2.402;2023-07-09T02:30:07;26.35;58.77
65854;DHT22;52627;48.838;2.402;2023-07-09T02:32:35;26.33;58.92
65854;DHT22;52627;48.838;2.402;2023-07-09T02:35:03;26.29;59.01
65854;DHT22;52627;48.838;2.402;2023-07-09T02:37:31;26.25;59.09
65854;DHT22;52627;48.838;2.402;2023-07-09T02:39:59;26.23;59.11
65854;DHT22;52627;48.838;2.402;2023-07-09T02:42:27;26.20;59.18
65854;DHT22;52627;48.838;2.402;2023-07-09T02:44:55;26.18;59.30
65854;DHT22;52627;48.838;2.402;2023-07-09T02:47:22;26.16;59.30
65854;DHT22;52627;48.838;2.402;2023-07-09T02:49:50;26.14;59.27
65854;DHT22;52627;48.838;2.402;2023-07-09T02:52:18;26.11;59.23
65854;DHT22;52627;48.838;2.402;2023-07-09T02:54:45;26.09;59.17
65854;DHT22;52627;48.838;2.402;2023-07-09T02:57:13;26.05;59.17
65854;DHT22;52627;48.838;2.402;2023-07-09T02:59:40;26.01;59.17
65854;DHT22;52627;48.838;2.402;2023-07-09T03:02:08;26.00;59.18
65854;DHT22;52627;48.838;2.402;2023-07-09T03:04:37;25.98;59.19
65854;DHT22;52627;48.838;2.402;2023-07-09T03:07:04;25.96;59.12
65854;DHT22;52627;48.838;2.402;2023-07-09T03:09:32;25.94;59.19
65854;DHT22;52627;48.838;2.402;2023-07-09T03:12:00;25.93;59.22
65854;DHT22;52627;48.838;2.402;2023-07-09T03:14:27;25.90;59.30
65854;DHT22;52627;48.838;2.402;2023-07-09T03:16:54;25.87;59.34
65854;DHT22;52627;48.838;2.402;2023-07-09T03:19:23;25.86;59.46
65854;DHT22;52627;48.838;2.402;2023-07-09T03:21:50;25.85;59.60
65854;DHT22;52627;48.838;2.402;2023-07-09T03:24:18;25.82;59.82
65854;DHT22;52627;48.838;2.402;2023-07-09T03:26:46;25.80;59.93
65854;DHT22;52627;48.838;2.402;2023-07-09T03:29:14;25.77;60.11
65854;DHT22;52627;48.838;2.402;2023-07-09T03:31:42;25.74;60.28
65854;DHT22;52627;48.838;2.402;2023-07-09T03:34:10;25.72;60.44
65854;DHT22;52627;48.838;2.402;2023-07-09T03:36:38;25.72;60.54
65854;DHT22;52627;48.838;2.402;2023-07-09T03:39:05;25.71;60.63
65854;DHT22;52627;48.838;2.402;2023-07-09T03:41:34;25.68;60.77
65854;DHT22;52627;48.838;2.402;2023-07-09T03:44:01;25.65;60.94
65854;DHT22;52627;48.838;2.402;2023-07-09T03:46:30;25.60;61.01
65854;DHT22;52627;48.838;2.402;2023-07-09T03:48:58;25.58;61.12
65854;DHT22;52627;48.838;2.402;2023-07-09T03:51:27;25.55;61.19
65854;DHT22;52627;48.838;2.402;2023-07-09T03:53:55;25.54;61.27
65854;DHT22;52627;48.838;2.402;2023-07-09T03:56:22;25.51;61.38
65854;DHT22;52627;48.838;2.402;2023-07-09T03:58:50;25.49;61.46
65854;DHT22;52627;48.838;2.402;2023-07-09T04:01:17;25.46;61.49
65854;DHT22;52627;48.838;2.402;2023-07-09T04:03:45;25.43;61.55
65854;DHT22;52627;48.838;2.402;2023-07-09T04:06:13;25.39;61.66
65854;DHT22;52627;48.838;2.402;2023-07-09T04:08:40;25.35;61.68
65854;DHT22;52627;48.838;2.402;2023-07-09T04:11:08;25.34;61.68
65854;DHT22;52627;48.838;2.402;2023-07-09T04:13:36;25.31;61.73
65854;DHT22;52627;48.838;2.402;2023-07-09T04:16:04;25.30;61.78
65854;DHT22;52627;48.838;2.402;2023-07-09T04:18:33;25.29;61.80
65854;DHT22;52627;48.838;2.402;2023-07-09T04:21:00;25.27;61.80
65854;DHT22;52627;48.838;2.402;2023-07-09T04:23:28;25.25;61.82
65854;DHT22;52627;48.838;2.402;2023-07-09T04:25:55;25.24;61.80
65854;DHT22;52627;48.838;2.402;2023-07-09T04:28:23;25.25;61.80
65854;DHT22;52627;48.838;2.402;2023-07-09T04:30:51;25.24;61.84
65854;DHT22;52627;48.838;2.402;2023-07-09T04:33:19;25.25;61.90
65854;DHT22;52627;48.838;2.402;2023-07-09T04:35:49;25.26;61.90
65854;DHT22;52627;48.838;2.402;2023-07-09T04:38:17;25.26;61.90
65854;DHT22;52627;48.838;2.402;2023-07-09T04:40:46;25.27;61.90
65854;DHT22;52627;48.838;2.402;2023-07-09T04:43:13;25.25;61.89
65854;DHT22;52627;48.838;2.402;2023-07-09T04:45:41;25.26;61.89
65854;DHT22;52627;48.838;2.402;2023-07-09T04:48:09;25.26;61.88
65854;DHT22;52627;48.838;2.402;2023-07-09T04:50:37;25.27;61.86
65854;DHT22;52627;48.838;2.402;2023-07-09T04:53:04;25.29;61.76
65854;DHT22;52627;48.838;2.402;2023-07-09T04:55:32;25.30;61.69
65854;DHT22;52627;48.838;2.402;2023-07-09T04:57:59;25.32;61.61
65854;DHT22;52627;48.838;2.402;2023-07-09T05:00:26;25.31;61.57
65854;DHT22;52627;48.838;2.402;2023-07-09T05:02:54;25.32;61.48
65854;DHT22;52627;48.838;2.402;2023-07-09T05:05:22;25.34;61.39
65854;DHT22;52627;48.838;2.402;2023-07-09T05:07:50;25.36;61.31
65854;DHT22;52627;48.838;2.402;2023-07-09T05:10:18;25.40;61.25
65854;DHT22;52627;48.838;2.402;2023-07-09T05:12:53;25.43;61.18
65854;DHT22;52627;48.838;2.402;2023-07-09T05:15:22;25.45;61.10
65854;DHT22;52627;48.838;2.402;2023-07-09T05:17:50;25.49;60.99
65854;DHT22;52627;48.838;2.402;2023-07-09T05:20:19;25.51;60.78
65854;DHT22;52627;48.838;2.402;2023-07-09T05:22:48;25.53;60.59
65854;DHT22;52627;48.838;2.402;2023-07-09T05:25:16;25.55;60.42
65854;DHT22;52627;48.838;2.402;2023-07-09T05:27:44;25.57;60.23
65854;DHT22;52627;48.838;2.402;2023-07-09T05:30:12;25.58;60.08
65854;DHT22;52627;48.838;2.402;2023-07-09T05:32:39;25.61;59.91
65854;DHT22;52627;48.838;2.402;2023-07-09T05:35:07;25.64;59.76
65854;DHT22;52627;48.838;2.402;2023-07-09T05:37:36;25.69;59.56
65854;DHT22;52627;48.838;2.402;2023-07-09T05:40:05;25.70;59.34
65854;DHT22;52627;48.838;2.402;2023-07-09T05:42:35;25.72;59.26
65854;DHT22;52627;48.838;2.402;2023-07-09T05:45:02;25.74;59.06
65854;DHT22;52627;48.838;2.402;2023-07-09T05:47:30;25.77;58.91
65854;DHT22;52627;48.838;2.402;2023-07-09T05:49:58;25.81;58.77
65854;DHT22;52627;48.838;2.402;2023-07-09T05:52:25;25.87;58.62
65854;DHT22;52627;48.838;2.402;2023-07-09T05:54:55;25.93;58.45
65854;DHT22;52627;48.838;2.402;2023-07-09T05:57:23;25.95;58.24
65854;DHT22;52627;48.838;2.402;2023-07-09T05:59:51;26.00;58.09
65854;DHT22;52627;48.838;2.402;2023-07-09T06:02:20;26.03;57.94
65854;DHT22;52627;48.838;2.402;2023-07-09T06:04:48;26.10;57.77
65854;DHT22;52627;48.838;2.402;2023-07-09T06:07:17;26.18;57.63
65854;DHT22;52627;48.838;2.402;2023-07-09T06:09:45;26.30;57.47
65854;DHT22;52627;48.838;2.402;2023-07-09T06:12:13;26.41;57.20
65854;DHT22;52627;48.838;2.402;2023-07-09T06:14:41;26.55;57.03
65854;DHT22;52627;48.838;2.402;2023-07-09T06:17:09;26.69;56.83
65854;DHT22;52627;48.838;2.402;2023-07-09T06:19:37;26.80;56.57
65854;DHT22;52627;48.838;2.402;2023-07-09T06:22:05;26.85;56.31
65854;DHT22;52627;48.838;2.402;2023-07-09T06:24:33;26.88;56.10
65854;DHT22;52627;48.838;2.402;2023-07-09T06:27:00;26.93;55.91
65854;DHT22;52627;48.838;2.402;2023-07-09T06:29:28;26.97;55.71
65854;DHT22;52627;48.838;2.402;2023-07-09T06:31:55;27.00;55.59
65854;DHT22;52627;48.838;2.402;2023-07-09T06:34:23;27.08;55.47
65854;DHT22;52627;48.838;2.402;2023-07-09T06:36:50;27.15;55.25
65854;DHT22;52627;48.838;2.402;2023-07-09T06:39:18;27.20;55.08
65854;DHT22;52627;48.838;2.402;2023-07-09T06:41:46;27.31;54.87
65854;DHT22;52627;48.838;2.402;2023-07-09T06:44:14;27.43;54.69
65854;DHT22;52627;48.838;2.402;2023-07-09T06:46:41;27.52;54.51
65854;DHT22;52627;48.838;2.402;2023-07-09T06:49:09;27.60;54.21
65854;DHT22;52627;48.838;2.402;2023-07-09T06:51:36;27.61;53.94
65854;DHT22;52627;48.838;2.402;2023-07-09T06:54:04;27.57;53.67
65854;DHT22;52627;48.838;2.402;2023-07-09T06:56:32;27.46;53.60
65854;DHT22;52627;48.838;2.402;2023-07-09T06:58:59;27.40;53.52
65854;DHT22;52627;48.838;2.402;2023-07-09T07:01:27;27.41;53.47
65854;DHT22;52627;48.838;2.402;2023-07-09T07:03:54;27.42;53.38
65854;DHT22;52627;48.838;2.402;2023-07-09T07:06:22;27.44;53.33
65854;DHT22;52627;48.838;2.402;2023-07-09T07:08:50;27.50;53.25
65854;DHT22;52627;48.838;2.402;2023-07-09T07:11:17;27.65;53.20
65854;DHT22;52627;48.838;2.402;2023-07-09T07:13:45;27.92;53.10
65854;DHT22;52627;48.838;2.402;2023-07-09T07:16:13;28.22;52.82
65854;DHT22;52627;48.838;2.402;2023-07-09T07:18:41;28.57;52.45
65854;DHT22;52627;48.838;2.402;2023-07-09T07:21:08;28.70;52.18
65854;DHT22;52627;48.838;2.402;2023-07-09T07:23:36;29.03;52.03
65854;DHT22;52627;48.838;2.402;2023-07-09T07:26:03;29.44;51.60
65854;DHT22;52627;48.838;2.402;2023-07-09T07:28:33;29.88;51.10
65854;DHT22;52627;48.838;2.402;2023-07-09T07:31:04;30.44;50.71
65854;DHT22;52627;48.838;2.402;2023-07-09T07:33:36;30.89;49.88
65854;DHT22;52627;48.838;2.402;2023-07-09T07:36:10;30.94;48.98
65854;DHT22;52627;48.838;2.402;2023-07-09T07:38:56;30.76;48.40
65854;DHT22;52627;48.838;2.402;2023-07-09T07:41:23;30.53;48.12
65854;DHT22;52627;48.838;2.402;2023-07-09T07:43:52;30.33;47.94
65854;DHT22;52627;48.838;2.402;2023-07-09T07:46:19;30.12;47.71
65854;DHT22;52627;48.838;2.402;2023-07-09T07:48:47;29.87;47.53
65854;DHT22;52627;48.838;2.402;2023-07-09T07:51:14;29.63;47.60
65854;DHT22;52627;48.838;2.402;2023-07-09T07:53:42;29.45;47.61
65854;DHT22;52627;48.838;2.402;2023-07-09T07:56:09;29.28;47.64
65854;DHT22;52627;48.838;2.402;2023-07-09T07:58:37;29.12;47.61
65854;DHT22;52627;48.838;2.402;2023-07-09T08:01:04;28.94;47.60
65854;DHT22;52627;48.838;2.402;2023-07-09T08:03:32;28.73;47.60
65854;DHT22;52627;48.838;2.402;2023-07-09T08:06:00;28.50;47.64
65854;DHT22;52627;48.838;2.402;2023-07-09T08:08:29;28.28;47.79
65854;DHT22;52627;48.838;2.402;2023-07-09T08:11:00;28.10;47.94
65854;DHT22;52627;48.838;2.402;2023-07-09T08:13:35;27.94;48.12
65854;DHT22;52627;48.838;2.402;2023-07-09T08:16:05;27.80;48.37
65854;DHT22;52627;48.838;2.402;2023-07-09T08:18:34;27.67;48.63
65854;DHT22;52627;48.838;2.402;2023-07-09T08:21:02;27.57;48.83
65854;DHT22;52627;48.838;2.402;2023-07-09T08:23:30;27.50;49.08
65854;DHT22;52627;48.838;2.402;2023-07-09T08:26:00;27.44;49.34
65854;DHT22;52627;48.838;2.402;2023-07-09T08:28:31;27.38;49.66
65854;DHT22;52627;48.838;2.402;2023-07-09T08:31:01;27.32;49.99
65854;DHT22;52627;48.838;2.402;2023-07-09T08:33:30;27.25;50.35
65854;DHT22;52627;48.838;2.402;2023-07-09T08:35:58;27.21;50.73
65854;DHT22;52627;48.838;2.402;2023-07-09T08:38:26;27.18;51.10
65854;DHT22;52627;48.838;2.402;2023-07-09T08:40:56;27.16;51.37
65854;DHT22;52627;48.838;2.402;2023-07-09T08:49:33;26.99;52.18
65854;DHT22;52627;48.838;2.402;2023-07-09T08:52:54;26.94;52.40
65854;DHT22;52627;48.838;2.402;2023-07-09T08:55:11;26.93;52.56
65854;DHT22;52627;48.838;2.402;2023-07-09T08:57:47;26.90;52.71
65854;DHT22;52627;48.838;2.402;2023-07-09T09:00:33;26.87;52.86
65854;DHT22;52627;48.838;2.402;2023-07-09T09:06:25;26.76;53.22
65854;DHT22;52627;48.838;2.402;2023-07-09T09:11:59;26.68;53.54
65854;DHT22;52627;48.838;2.402;2023-07-09T09:14:44;26.65;53.68
65854;DHT22;52627;48.838;2.402;2023-07-09T09:17:27;26.60;53.88
65854;DHT22;52627;48.838;2.402;2023-07-09T09:20:01;26.54;54.10
65854;DHT22;52627;48.838;2.402;2023-07-09T09:22:36;26.44;54.21
65854;DHT22;52627;48.838;2.402;2023-07-09T09:25:16;26.38;54.41
65854;DHT22;52627;48.838;2.402;2023-07-09T09:27:59;26.33;54.52
65854;DHT22;52627;48.838;2.402;2023-07-09T09:30:28;26.31;54.62
65854;DHT22;52627;48.838;2.402;2023-07-09T09:32:58;26.30;54.77
65854;DHT22;52627;48.838;2.402;2023-07-09T09:35:39;26.27;54.89
65854;DHT22;52627;48.838;2.402;2023-07-09T09:38:16;26.27;54.95
65854;DHT22;52627;48.838;2.402;2023-07-09T09:40:48;26.26;55.01
65854;DHT22;52627;48.838;2.402;2023-07-09T09:43:17;26.25;55.10
65854;DHT22;52627;48.838;2.402;2023-07-09T09:45:48;26.26;55.09
65854;DHT22;52627;48.838;2.402;2023-07-09T09:50:56;26.36;55.11
65854;DHT22;52627;48.838;2.402;2023-07-09T09:53:29;26.41;55.22
65854;DHT22;52627;48.838;2.402;2023-07-09T09:56:06;26.41;55.33
65854;DHT22;52627;48.838;2.402;2023-07-09T09:59:01;26.43;55.44
65854;DHT22;52627;48.838;2.402;2023-07-09T10:01:30;26.42;55.50
65854;DHT22;52627;48.838;2.402;2023-07-09T10:04:03;26.42;55.50
65854;DHT22;52627;48.838;2.402;2023-07-09T10:11:50;26.41;55.72
65854;DHT22;52627;48.838;2.402;2023-07-09T10:20:03;26.50;56.86
65854;DHT22;52627;48.838;2.402;2023-07-09T10:22:57;26.54;57.49
65854;DHT22;52627;48.838;2.402;2023-07-09T10:28:54;26.58;57.76
65854;DHT22;52627;48.838;2.402;2023-07-09T10:34:44;26.48;58.56
65854;DHT22;52627;48.838;2.402;2023-07-09T10:40:09;26.47;58.87
65854;DHT22;52627;48.838;2.402;2023-07-09T10:42:44;26.47;59.20
65854;DHT22;52627;48.838;2.402;2023-07-09T10:45:20;26.46;59.49
65854;DHT22;52627;48.838;2.402;2023-07-09T10:47:59;26.46;59.67
65854;DHT22;52627;48.838;2.402;2023-07-09T10:50:42;26.60;59.78
65854;DHT22;52627;48.838;2.402;2023-07-09T10:56:11;26.99;59.75
65854;DHT22;52627;48.838;2.402;2023-07-09T11:01:48;27.88;59.11
65854;DHT22;52627;48.838;2.402;2023-07-09T11:07:02;28.82;57.99
65854;DHT22;52627;48.838;2.402;2023-07-09T11:09:35;29.02;57.20
65854;DHT22;52627;48.838;2.402;2023-07-09T11:12:11;29.23;56.67
65854;DHT22;52627;48.838;2.402;2023-07-09T11:14:50;29.67;55.84
65854;DHT22;52627;48.838;2.402;2023-07-09T11:17:32;30.16;54.89
65854;DHT22;52627;48.838;2.402;2023-07-09T11:20:06;30.63;54.35
65854;DHT22;52627;48.838;2.402;2023-07-09T11:22:54;31.06;53.04
65854;DHT22;52627;48.838;2.402;2023-07-09T11:25:40;31.39;52.05
65854;DHT22;52627;48.838;2.402;2023-07-09T11:28:11;31.49;51.16
65854;DHT22;52627;48.838;2.402;2023-07-09T11:30:46;31.76;50.41
65854;DHT22;52627;48.838;2.402;2023-07-09T11:33:25;31.83;49.51
65854;DHT22;52627;48.838;2.402;2023-07-09T11:36:09;31.71;48.95
65854;DHT22;52627;48.838;2.402;2023-07-09T11:38:43;31.75;48.45
65854;DHT22;52627;48.838;2.402;2023-07-09T11:41:22;31.99;47.72
65854;DHT22;52627;48.838;2.402;2023-07-09T11:50:06;32.88;46.06
65854;DHT22;52627;48.838;2.402;2023-07-09T11:53:30;33.13;45.26
65854;DHT22;52627;48.838;2.402;2023-07-09T11:56:14;33.24;44.67
65854;DHT22;52627;48.838;2.402;2023-07-09T11:58:54;33.33;44.19
65854;DHT22;52627;48.838;2.402;2023-07-09T12:01:28;33.38;43.76
65854;DHT22;52627;48.838;2.402;2023-07-09T12:04:12;33.46;43.34
65854;DHT22;52627;48.838;2.402;2023-07-09T12:06:42;33.51;43.05
65854;DHT22;52627;48.838;2.402;2023-07-09T12:09:16;33.57;42.73
65854;DHT22;52627;48.838;2.402;2023-07-09T12:11:49;33.70;42.62
65854;DHT22;52627;48.838;2.402;2023-07-09T12:14:19;33.91;42.26
65854;DHT22;52627;48.838;2.402;2023-07-09T12:16:50;34.02;41.85
65854;DHT22;52627;48.838;2.402;2023-07-09T12:19:21;34.07;41.41
65854;DHT22;52627;48.838;2.402;2023-07-09T12:21:52;34.15;41.27
65854;DHT22;52627;48.838;2.402;2023-07-09T12:24:27;34.28;40.78
65854;DHT22;52627;48.838;2.402;2023-07-09T12:27:20;34.26;40.51
65854;DHT22;52627;48.838;2.402;2023-07-09T12:29:54;34.34;40.22
65854;DHT22;52627;48.838;2.402;2023-07-09T12:32:24;34.36;39.94
65854;DHT22;52627;48.838;2.402;2023-07-09T12:34:55;34.43;39.81
65854;DHT22;52627;48.838;2.402;2023-07-09T12:37:31;34.55;39.55
65854;DHT22;52627;48.838;2.402;2023-07-09T12:39:59;34.63;39.28
65854;DHT22;52627;48.838;2.402;2023-07-09T12:42:33;34.73;39.24
65854;DHT22;52627;48.838;2.402;2023-07-09T12:45:03;34.80;38.84
65854;DHT22;52627;48.838;2.402;2023-07-09T12:47:32;34.78;38.63
65854;DHT22;52627;48.838;2.402;2023-07-09T12:50:01;34.69;38.53
65854;DHT22;52627;48.838;2.402;2023-07-09T12:53:11;34.59;38.52
65854;DHT22;52627;48.838;2.402;2023-07-09T12:55:45;34.50;38.41
65854;DHT22;52627;48.838;2.402;2023-07-09T12:58:18;34.41;38.44
65854;DHT22;52627;48.838;2.402;2023-07-09T13:00:59;34.30;38.53
65854;DHT22;52627;48.838;2.402;2023-07-09T13:03:34;34.23;38.64
65854;DHT22;52627;48.838;2.402;2023-07-09T13:06:04;34.13;38.56
65854;DHT22;52627;48.838;2.402;2023-07-09T13:08:55;34.09;38.71
65854;DHT22;52627;48.838;2.402;2023-07-09T13:11:33;34.15;38.83
65854;DHT22;52627;48.838;2.402;2023-07-09T13:14:04;34.15;38.90
65854;DHT22;52627;48.838;2.402;2023-07-09T13:16:46;34.18;38.97
65854;DHT22;52627;48.838;2.402;2023-07-09T13:19:14;34.35;38.81
65854;DHT22;52627;48.838;2.402;2023-07-09T13:21:42;34.53;38.48
65854;DHT22;52627;48.838;2.402;2023-07-09T13:24:12;34.43;38.24
65854;DHT22;52627;48.838;2.402;2023-07-09T13:26:44;34.42;38.17
65854;DHT22;52627;48.838;2.402;2023-07-09T13:29:13;34.40;38.08
65854;DHT22;52627;48.838;2.402;2023-07-09T13:31:46;34.32;37.97
65854;DHT22;52627;48.838;2.402;2023-07-09T13:34:22;34.36;37.98
65854;DHT22;52627;48.838;2.402;2023-07-09T13:36:53;34.43;37.82
65854;DHT22;52627;48.838;2.402;2023-07-09T13:39:23;34.40;37.83
65854;DHT22;52627;48.838;2.402;2023-07-09T13:41:54;34.44;37.81
65854;DHT22;52627;48.838;2.402;2023-07-09T13:44:24;34.43;37.85
65854;DHT22;52627;48.838;2.402;2023-07-09T13:46:55;34.29;37.91
65854;DHT22;52627;48.838;2.402;2023-07-09T13:49:24;34.31;37.90
65854;DHT22;52627;48.838;2.402;2023-07-09T13:51:56;34.54;37.91
65854;DHT22;52627;48.838;2.402;2023-07-09T13:54:29;34.86;37.94
65854;DHT22;52627;48.838;2.402;2023-07-09T13:57:03;35.20;37.95
65854;DHT22;52627;48.838;2.402;2023-07-09T13:59:32;35.44;37.57
65854;DHT22;52627;48.838;2.402;2023-07-09T14:02:00;35.45;37.29
65854;DHT22;52627;48.838;2.402;2023-07-09T14:04:32;35.34;37.15
65854;DHT22;52627;48.838;2.402;2023-07-09T14:07:00;35.23;37.11
65854;DHT22;52627;48.838;2.402;2023-07-09T14:09:29;35.15;36.95
65854;DHT22;52627;48.838;2.402;2023-07-09T14:11:56;34.99;36.89
65854;DHT22;52627;48.838;2.402;2023-07-09T14:14:25;34.83;36.83
65854;DHT22;52627;48.838;2.402;2023-07-09T14:16:59;34.71;36.79
65854;DHT22;52627;48.838;2.402;2023-07-09T14:19:26;34.52;36.74
65854;DHT22;52627;48.838;2.402;2023-07-09T14:21:55;34.41;36.83
65854;DHT22;52627;48.838;2.402;2023-07-09T14:24:23;34.33;36.91
65854;DHT22;52627;48.838;2.402;2023-07-09T14:26:55;34.32;37.05
65854;DHT22;52627;48.838;2.402;2023-07-09T14:29:24;34.34;37.07
65854;DHT22;52627;48.838;2.402;2023-07-09T14:31:53;34.29;37.13
65854;DHT22;52627;48.838;2.402;2023-07-09T14:34:22;34.16;37.13
65854;DHT22;52627;48.838;2.402;2023-07-09T14:36:57;34.04;37.33
65854;DHT22;52627;48.838;2.402;2023-07-09T14:39:28;33.96;37.38
65854;DHT22;52627;48.838;2.402;2023-07-09T14:41:56;33.85;37.44
65854;DHT22;52627;48.838;2.402;2023-07-09T14:46:55;33.70;37.69
65854;DHT22;52627;48.838;2.402;2023-07-09T14:49:26;33.66;37.74
65854;DHT22;52627;48.838;2.402;2023-07-09T14:51:54;33.64;37.82
65854;DHT22;52627;48.838;2.402;2023-07-09T14:54:23;33.58;37.87
65854;DHT22;52627;48.838;2.402;2023-07-09T14:56:57;33.45;37.95
65854;DHT22;52627;48.838;2.402;2023-07-09T14:59:25;33.31;38.10
65854;DHT22;52627;48.838;2.402;2023-07-09T15:01:53;33.23;38.17
65854;DHT22;52627;48.838;2.402;2023-07-09T15:06:49;33.09;38.45
65854;DHT22;52627;48.838;2.402;2023-07-09T15:09:19;33.04;38.59
65854;DHT22;52627;48.838;2.402;2023-07-09T15:11:55;32.99;38.70
65854;DHT22;52627;48.838;2.402;2023-07-09T15:14:25;32.96;38.79
65854;DHT22;52627;48.838;2.402;2023-07-09T15:16:54;32.90;38.86
65854;DHT22;52627;48.838;2.402;2023-07-09T15:19:27;32.84;38.95
65854;DHT22;52627;48.838;2.402;2023-07-09T15:21:55;32.74;39.05
65854;DHT22;52627;48.838;2.402;2023-07-09T15:26:57;32.60;39.27
65854;DHT22;52627;48.838;2.402;2023-07-09T15:29:27;32.55;39.41
65854;DHT22;52627;48.838;2.402;2023-07-09T15:31:57;32.51;39.48
65854;DHT22;52627;48.838;2.402;2023-07-09T15:34:26;32.42;39.53
65854;DHT22;52627;48.838;2.402;2023-07-09T15:36:54;32.31;39.59
65854;DHT22;52627;48.838;2.402;2023-07-09T15:39:22;32.22;39.76
65854;DHT22;52627;48.838;2.402;2023-07-09T15:41:49;32.21;39.88
65854;DHT22;52627;48.838;2.402;2023-07-09T15:44:17;32.24;40.03
65854;DHT22;52627;48.838;2.402;2023-07-09T15:46:51;32.27;40.03
65854;DHT22;52627;48.838;2.402;2023-07-09T15:49:22;32.27;40.10
65854;DHT22;52627;48.838;2.402;2023-07-09T15:51:52;32.24;40.16
65854;DHT22;52627;48.838;2.402;2023-07-09T15:54:20;32.17;40.19
65854;DHT22;52627;48.838;2.402;2023-07-09T15:56:51;32.08;40.18
65854;DHT22;52627;48.838;2.402;2023-07-09T16:01:57;31.84;40.50
65854;DHT22;52627;48.838;2.402;2023-07-09T16:04:27;31.71;40.56
65854;DHT22;52627;48.838;2.402;2023-07-09T16:06:55;31.57;40.69
65854;DHT22;52627;48.838;2.402;2023-07-09T16:09:23;31.51;40.84
65854;DHT22;52627;48.838;2.402;2023-07-09T16:11:51;31.45;40.94
65854;DHT22;52627;48.838;2.402;2023-07-09T16:14:25;31.39;41.07
65854;DHT22;52627;48.838;2.402;2023-07-09T16:16:59;31.36;41.25
65854;DHT22;52627;48.838;2.402;2023-07-09T16:19:30;31.31;41.33
65854;DHT22;52627;48.838;2.402;2023-07-09T16:21:59;31.21;41.46
65854;DHT22;52627;48.838;2.402;2023-07-09T16:24:32;31.09;41.63
65854;DHT22;52627;48.838;2.402;2023-07-09T16:27:04;30.96;41.81
65854;DHT22;52627;48.838;2.402;2023-07-09T16:29:36;30.87;42.01
65854;DHT22;52627;48.838;2.402;2023-07-09T16:32:03;30.82;42.18
65854;DHT22;52627;48.838;2.402;2023-07-09T16:34:32;30.74;42.38
65854;DHT22;52627;48.838;2.402;2023-07-09T16:36:59;30.70;42.56
65854;DHT22;52627;48.838;2.402;2023-07-09T16:39:40;30.68;42.72
65854;DHT22;52627;48.838;2.402;2023-07-09T16:42:12;30.65;42.89
65854;DHT22;52627;48.838;2.402;2023-07-09T16:44:41;30.60;43.07
65854;DHT22;52627;48.838;2.402;2023-07-09T16:47:13;30.50;43.22
65854;DHT22;52627;48.838;2.402;2023-07-09T16:49:44;30.40;43.42
65854;DHT22;52627;48.838;2.402;2023-07-09T16:52:23;30.31;43.64
65854;DHT22;52627;48.838;2.402;2023-07-09T16:54:54;30.26;43.84
65854;DHT22;52627;48.838;2.402;2023-07-09T16:57:25;30.24;43.99